Aérodrome de la Montagne Noire

LFMG · Upper Garonne, Occitanie, 法国

罗盘
风向 的 风向 330° Aérodrome de la Montagne Noire 18/36
风: 10 kt, 3 beaufort

8 kt

6 kt
改变
0 1.000 2.000 3.000 4.000 5.000
SCT 1.200 ft
BKN 2.100 ft
BKN 3.200 ft
METAR LFCK 291200Z AUTO 33010KT 9999 SCT012 BKN021 BKN032 09/07 Q1020 TEMPO BKN008

METAR Aérodrome de la Montagne Noire - LFMG

Aérodrome de la Montagne Noire是,法国中的小机场。 该机场有3条跑道: 18/36, 3/21 和 12/30. 该领域的国际民航组织标志是LFMG.

这份报告是针对2022年11月29日 13:00, 当地时间在Castres-Mazamet Airport进行的。

机场观察

风向为330°,速度为10 kt。

可见度为10 km 或者更多。

有疏云,零星散落的云朵在1.200 ft的高度, 碎云在2.100 ft的高度 和 碎云在3.200 ft的高度。 破损或更高的上限为2.100 ft。

温度为9 °C,阵风为5 °C。 露点为7 °C,相对湿度为87%。 海平面上的气压为1020 hPa (QNH)。

发展趋势

  • 暂时的

    可变方向的风很小或没有。 碎云在800 ft的高度.

白天

今天,太阳从08:02升起,在17:18降落。 这适用于Aérodrome de la Montagne Noire,世界夏令时可能有所不同。 当地时间与世界标准时间之间的时差为+1 小时。 当前,没有夏令时有效。

公司介绍

我们没有关于这个机场的公司信息。

体会

到Vliegles.nl去找飞行课程,跳伞和其他飞行体验。 浏览页面,了解Aérodrome de la Montagne Noire附近所有可用的活动。 你也可以使用搜索功能来寻找你所在地附近的特定飞行课程、跳伞或其他飞行体验。

跑道

Id 标题 侧风 逆风 侧风 %
18/36 004°-184° 6 kt 8 kt 56 %
3/21 034°-214° 9 kt 4 kt 90 %
12/30 121°-301° 5 kt 9 kt 48 %

逆风成分最大的方向会被突出显示,并用于横风计算。 这并不一定意味着这个方向在使用。

乌云

1.200 ft SCT 疏云,零星散落的云朵
2.100 ft BKN 碎云
3.200 ft BKN 碎云
800 ft BKN 暂时的 碎云

温度 & 天气

温度 9 °C
露点 7 °C
相对湿度 87%
风寒 5 °C
Kp-index 2 (0-9)

白天

日出
08:01
中午
12:39
日落
17:16 (3:50)

小工具

你想在你的网站上有一个关于Aérodrome de la Montagne Noire的当前航空天气(METAR)的小部件吗?

显示HTML代码

我们和第三方通过cookies跟踪您在我们网站上的互联网行为。如果你继续,我们认为你同意我们的饼干政策